Time;durP1;ratioP1;P1;durP2;ratioP2;P2;SDS_P1;SDS_P2;PMS_P1;PMS_P2;Temp;Humidity;BMP_temperature;BMP_pressure;BME280_temperature;BME280_humidity;BME280_pressure;Samples;Min_cycle;Max_cycle;Signal;HPM_P1;HPM_P2
2023/04/08 00:01:31;;;;;;;1.80;1.70;;;;;;;7.65;85.10;95481.84;4385766;32;20189;-51
2023/04/08 00:03:56;;;;;;;1.47;1.37;;;;;;;7.64;85.17;95483.69;4368269;32;20295;-49
2023/04/08 00:06:21;;;;;;;1.87;1.80;;;;;;;7.29;86.64;95489.84;4381970;32;20188;-52
2023/04/08 00:08:46;;;;;;;1.40;1.30;;;;;;;7.44;86.41;95481.13;4381219;32;20244;-49
2023/04/08 00:11:12;;;;;;;1.90;1.80;;;;;;;7.37;86.33;95485.88;4390204;32;20304;-50
2023/04/08 00:13:37;;;;;;;1.27;1.27;;;;;;;7.40;86.44;95486.16;4386704;32;20218;-53
2023/04/08 00:16:02;;;;;;;1.50;1.50;;;;;;;7.43;86.43;95485.62;4383890;32;20227;-52
2023/04/08 00:18:28;;;;;;;1.80;1.70;;;;;;;7.34;86.74;95483.78;4392044;32;20203;-51
2023/04/08 00:20:53;;;;;;;1.80;1.70;;;;;;;7.47;86.35;95484.03;4387722;32;20245;-51
2023/04/08 00:23:20;;;;;;;2.03;1.93;;;;;;;7.28;87.08;95485.62;4382213;32;20222;-50
2023/04/08 00:25:45;;;;;;;1.00;0.90;;;;;;;7.36;86.94;95490.38;4380091;32;20246;-51
2023/04/08 00:28:11;;;;;;;1.20;1.20;;;;;;;7.35;86.92;95493.28;4380393;32;20319;-50
2023/04/08 00:30:37;;;;;;;1.77;1.63;;;;;;;7.32;87.28;95491.97;4387172;32;20208;-51
2023/04/08 00:33:03;;;;;;;1.40;1.23;;;;;;;7.32;87.54;95494.59;4383641;32;20188;-50
2023/04/08 00:35:28;;;;;;;1.17;1.17;;;;;;;7.31;87.48;95495.66;4375932;32;20193;-50
2023/04/08 00:37:54;;;;;;;1.70;1.63;;;;;;;7.45;87.03;95495.91;4378479;32;20268;-53
2023/04/08 00:40:19;;;;;;;1.23;1.23;;;;;;;7.50;86.78;95498.50;4391707;32;20206;-53
2023/04/08 00:42:44;;;;;;;1.63;1.53;;;;;;;7.45;86.72;95498.53;4371847;32;20205;-52
2023/04/08 00:45:10;;;;;;;1.27;1.27;;;;;;;7.48;86.93;95495.38;4382941;32;20201;-54
2023/04/08 00:47:35;;;;;;;0.97;0.97;;;;;;;7.50;86.70;95495.87;4389170;32;20231;-54
2023/04/08 00:50:02;;;;;;;1.10;1.10;;;;;;;7.42;87.07;95499.88;4368578;32;20180;-53
2023/04/08 00:52:27;;;;;;;0.87;0.87;;;;;;;7.33;87.71;95493.53;4389710;32;20218;-50
2023/04/08 00:54:53;;;;;;;1.60;1.50;;;;;;;7.22;87.90;95499.91;4385644;32;20277;-51
2023/04/08 00:57:18;;;;;;;1.33;1.33;;;;;;;7.25;87.83;95499.38;4384806;32;20226;-53
2023/04/08 00:59:44;;;;;;;1.10;1.00;;;;;;;7.11;88.67;95500.97;4382857;32;20260;-51
2023/04/08 01:02:41;;;;;;;1.27;0.90;;;;;;;7.13;88.78;95497.00;4381993;32;20214;-52
2023/04/08 01:05:25;;;;;;;1.20;1.10;;;;;;;7.15;88.63;95492.28;4384041;32;20222;-52
2023/04/08 01:07:50;;;;;;;0.93;0.93;;;;;;;6.99;89.45;95496.00;4380101;32;20322;-49
2023/04/08 01:10:21;;;;;;;1.00;1.00;;;;;;;7.03;89.64;95498.91;4379090;32;20315;-53
2023/04/08 01:12:54;;;;;;;2.17;1.80;;;;;;;6.88;89.88;95494.41;4371692;32;20230;-50
2023/04/08 01:15:20;;;;;;;1.33;1.23;;;;;;;6.84;90.26;95496.03;4388655;32;20298;-51
2023/04/08 01:17:49;;;;;;;1.23;1.23;;;;;;;6.76;90.71;95489.41;4385531;32;20275;-49
2023/04/08 01:20:15;;;;;;;1.10;1.10;;;;;;;6.98;90.03;95486.50;4375567;32;20389;-48
2023/04/08 01:22:59;;;;;;;1.33;1.23;;;;;;;6.92;89.95;95492.03;4388650;32;20426;-48
2023/04/08 01:25:35;;;;;;;1.33;1.23;;;;;;;6.99;89.71;95487.28;4368406;32;20295;-51
2023/04/08 01:28:06;;;;;;;0.73;0.73;;;;;;;6.82;90.29;95496.28;4384454;32;20309;-48
2023/04/08 01:30:33;;;;;;;1.20;1.20;;;;;;;6.80;90.60;95493.12;4384433;32;20289;-48
2023/04/08 01:33:00;;;;;;;1.00;1.00;;;;;;;6.72;90.97;95491.00;4389146;32;20295;-49
2023/04/08 01:35:26;;;;;;;1.40;1.40;;;;;;;6.63;91.63;95492.59;4380781;32;20388;-50
2023/04/08 01:37:52;;;;;;;1.43;1.43;;;;;;;6.60;91.62;95489.69;4380714;32;20280;-50
2023/04/08 01:40:19;;;;;;;0.70;0.70;;;;;;;6.68;91.23;95486.50;4381464;32;20213;-52
2023/04/08 01:42:49;;;;;;;1.23;1.23;;;;;;;6.73;90.95;95487.31;4387483;32;20408;-48
2023/04/08 01:45:16;;;;;;;0.93;0.93;;;;;;;6.60;91.34;95487.84;4388236;32;20367;-51
2023/04/08 01:47:43;;;;;;;1.13;1.03;;;;;;;6.59;91.28;95486.28;4381888;32;20291;-52
2023/04/08 01:50:09;;;;;;;0.60;0.60;;;;;;;6.74;91.21;95488.91;4384171;32;20304;-51
2023/04/08 01:52:37;;;;;;;2.30;1.70;;;;;;;6.70;90.94;95492.31;4383595;32;20281;-49
2023/04/08 01:55:03;;;;;;;1.20;1.17;;;;;;;6.65;91.28;95490.47;4382634;32;20291;-51
2023/04/08 01:57:34;;;;;;;1.20;1.10;;;;;;;6.71;91.28;95486.78;4363016;32;20392;-49
2023/04/08 02:00:01;;;;;;;1.17;1.17;;;;;;;6.68;91.50;95497.06;4383959;32;20303;-48
2023/04/08 02:02:28;;;;;;;1.30;1.30;;;;;;;6.45;92.33;95501.00;4387690;32;20310;-50
2023/04/08 02:04:54;;;;;;;0.97;0.97;;;;;;;6.43;92.33;95503.13;4377846;32;20360;-48
2023/04/08 02:07:20;;;;;;;1.23;1.23;;;;;;;6.45;92.53;95501.78;4378010;32;20280;-53
2023/04/08 02:09:45;;;;;;;1.10;1.10;;;;;;;6.57;91.93;95501.56;4380064;32;20188;-50
2023/04/08 02:12:11;;;;;;;1.00;1.00;;;;;;;6.54;92.16;95496.81;4360628;32;20280;-52
2023/04/08 02:14:36;;;;;;;1.40;1.30;;;;;;;6.57;91.80;95491.00;4377709;32;20256;-54
2023/04/08 02:17:08;;;;;;;1.23;1.23;;;;;;;6.52;91.91;95496.28;4388290;32;20215;-52
2023/04/08 02:19:48;;;;;;;2.70;1.47;;;;;;;6.31;92.90;95499.94;4386852;32;20188;-51
2023/04/08 02:22:25;;;;;;;1.23;1.20;;;;;;;6.41;92.48;95503.37;4381486;32;20342;-49
2023/04/08 02:24:52;;;;;;;1.67;1.57;;;;;;;6.46;92.48;95499.94;4385240;32;20284;-53
2023/04/08 02:27:18;;;;;;;1.73;1.63;;;;;;;6.43;92.67;95497.88;4389813;32;20329;-48
2023/04/08 02:29:45;;;;;;;0.70;0.70;;;;;;;6.45;92.53;95501.00;4373410;32;20330;-52
2023/04/08 02:32:11;;;;;;;0.97;0.97;;;;;;;6.31;93.10;95499.94;4380680;32;20390;-50
2023/04/08 02:34:39;;;;;;;0.97;0.97;;;;;;;6.26;93.35;95499.94;4382539;32;20284;-48
2023/04/08 02:37:04;;;;;;;0.83;0.83;;;;;;;6.25;93.48;95500.97;4374495;32;20280;-50
2023/04/08 02:39:31;;;;;;;1.20;1.20;;;;;;;6.35;93.56;95499.16;4380048;32;20307;-51
2023/04/08 02:41:57;;;;;;;1.23;1.23;;;;;;;6.44;92.75;95502.09;4381222;32;20185;-51
2023/04/08 02:44:22;;;;;;;0.97;0.97;;;;;;;6.34;93.18;95499.41;4383971;32;20300;-47
2023/04/08 02:46:48;;;;;;;3.97;1.00;;;;;;;6.53;92.56;95503.13;4386795;32;20265;-53
2023/04/08 02:49:13;;;;;;;1.10;1.10;;;;;;;6.42;92.74;95501.53;4385644;32;20245;-52
2023/04/08 02:51:39;;;;;;;0.87;0.70;;;;;;;6.38;92.89;95497.84;4378300;32;20214;-51
2023/04/08 02:54:04;;;;;;;1.07;1.07;;;;;;;6.24;93.26;95492.28;4378258;32;20188;-50
2023/04/08 02:56:29;;;;;;;2.20;2.10;;;;;;;6.35;93.11;95491.25;4380073;32;20182;-52
2023/04/08 02:58:55;;;;;;;1.23;1.17;;;;;;;6.44;92.98;95499.44;4377507;32;20207;-54
2023/04/08 03:01:20;;;;;;;0.90;0.90;;;;;;;6.54;92.37;95489.69;4386528;32;20184;-48
2023/04/08 03:03:46;;;;;;;1.73;1.63;;;;;;;6.48;92.46;95495.22;4385470;32;20196;-54
2023/04/08 03:06:11;;;;;;;1.87;1.17;;;;;;;6.57;92.20;95493.66;4382323;32;20188;-53
2023/04/08 03:08:36;;;;;;;1.70;1.43;;;;;;;6.48;92.23;95493.38;4389969;32;20260;-52
2023/04/08 03:11:01;;;;;;;1.13;1.13;;;;;;;6.51;92.42;95498.13;4381876;32;20188;-53
2023/04/08 03:13:28;;;;;;;1.63;1.60;;;;;;;6.56;92.69;95497.34;4380642;32;20184;-53
2023/04/08 03:15:54;;;;;;;2.10;2.00;;;;;;;6.56;92.46;95497.34;4388868;32;20202;-49
2023/04/08 03:18:19;;;;;;;1.17;1.17;;;;;;;6.62;92.36;95506.84;4378392;32;20288;-49
2023/04/08 03:20:44;;;;;;;1.40;1.40;;;;;;;6.65;91.91;95508.91;4387242;32;20208;-49
2023/04/08 03:23:10;;;;;;;1.33;1.33;;;;;;;6.69;91.93;95511.81;4369265;32;20302;-53
2023/04/08 03:25:35;;;;;;;1.67;1.20;;;;;;;6.64;91.90;95507.38;4384399;32;20184;-50
2023/04/08 03:28:00;;;;;;;1.23;1.23;;;;;;;6.66;91.88;95502.59;4377078;32;20205;-51
2023/04/08 03:30:26;;;;;;;1.67;1.57;;;;;;;6.74;91.68;95504.72;4378705;32;20184;-48
2023/04/08 03:32:51;;;;;;;1.17;1.17;;;;;;;6.52;92.45;95502.34;4384219;32;20210;-49
2023/04/08 03:35:16;;;;;;;1.77;1.67;;;;;;;6.75;91.82;95505.50;4379105;32;20184;-53
2023/04/08 03:37:42;;;;;;;3.70;2.07;;;;;;;6.78;91.60;95504.97;4370890;32;20176;-50
2023/04/08 03:40:08;;;;;;;1.67;1.67;;;;;;;6.73;92.10;95503.13;4377429;32;20247;-51
2023/04/08 03:42:33;;;;;;;1.07;1.07;;;;;;;6.67;91.80;95504.16;4378558;32;20211;-49
2023/04/08 03:44:59;;;;;;;1.73;1.63;;;;;;;6.83;91.46;95508.41;4379164;32;20277;-50
2023/04/08 03:47:26;;;;;;;1.70;1.60;;;;;;;6.84;91.27;95509.19;4366910;32;20239;-58
2023/04/08 03:49:54;;;;;;;2.13;2.03;;;;;;;6.98;90.85;95514.72;4375204;32;20189;-51
2023/04/08 03:52:20;;;;;;;1.77;1.77;;;;;;;6.93;91.13;95515.50;4374639;32;20281;-46
2023/04/08 03:54:45;;;;;;;1.20;1.20;;;;;;;6.99;91.00;95511.81;4383721;32;20299;-52
2023/04/08 03:57:11;;;;;;;1.70;1.60;;;;;;;6.84;91.57;95517.91;4382145;32;20210;-51
2023/04/08 03:59:38;;;;;;;1.20;1.20;;;;;;;6.84;91.81;95515.28;4387807;32;20177;-53
2023/04/08 04:02:04;;;;;;;1.67;1.57;;;;;;;6.94;91.45;95513.66;4384263;32;20238;-53
2023/04/08 04:04:29;;;;;;;1.50;1.50;;;;;;;6.98;90.79;95512.88;4389041;32;20308;-52
2023/04/08 04:06:55;;;;;;;1.77;1.67;;;;;;;7.10;90.50;95508.09;4380747;32;20176;-53
2023/04/08 04:09:20;;;;;;;1.00;1.00;;;;;;;6.94;90.80;95518.94;4382173;32;20203;-54
2023/04/08 04:11:45;;;;;;;1.73;1.63;;;;;;;6.93;91.28;95522.62;4385072;32;20219;-52
2023/04/08 04:14:11;;;;;;;2.80;2.67;;;;;;;6.96;91.33;95530.81;4392614;32;20194;-51
2023/04/08 04:16:36;;;;;;;3.10;2.10;;;;;;;6.94;91.28;95529.47;4386518;32;20202;-51
2023/04/08 04:19:01;;;;;;;0.90;0.90;;;;;;;6.93;91.56;95533.19;4390270;32;20218;-49
2023/04/08 04:21:27;;;;;;;2.17;2.07;;;;;;;7.01;91.49;95535.28;4375606;32;20189;-52
2023/04/08 04:23:52;;;;;;;2.40;2.30;;;;;;;7.00;91.24;95536.34;4390994;32;20184;-52
2023/04/08 04:26:17;;;;;;;1.10;1.10;;;;;;;6.98;91.59;95538.44;4383538;32;20206;-53
2023/04/08 04:28:43;;;;;;;2.23;2.13;;;;;;;7.05;91.55;95533.72;4386915;32;20258;-53
2023/04/08 04:31:17;;;;;;;1.80;1.70;;;;;;;7.00;91.58;95538.97;4390693;32;20185;-51
2023/04/08 04:33:42;;;;;;;1.77;1.77;;;;;;;7.03;91.22;95546.38;4382921;32;20196;-52
2023/04/08 04:36:07;;;;;;;2.00;1.90;;;;;;;7.18;90.96;95547.13;4382510;32;20302;-50
2023/04/08 04:38:33;;;;;;;1.30;1.20;;;;;;;7.30;90.16;95549.47;4368413;32;20323;-52
2023/04/08 04:40:58;;;;;;;2.00;1.90;;;;;;;7.16;90.72;95543.19;4387658;32;20246;-52
2023/04/08 04:43:24;;;;;;;1.50;1.50;;;;;;;7.23;90.49;95543.72;4392970;32;20245;-47
2023/04/08 04:45:49;;;;;;;2.50;1.93;;;;;;;7.14;90.58;95546.09;4369570;32;20192;-52
2023/04/08 04:48:15;;;;;;;2.20;2.00;;;;;;;7.09;91.09;95546.09;4385902;32;20276;-51
2023/04/08 04:50:40;;;;;;;1.37;1.37;;;;;;;6.98;91.72;95551.63;4383734;32;20203;-51
2023/04/08 04:53:05;;;;;;;1.47;1.47;;;;;;;6.99;92.00;95555.84;4385749;32;20233;-52
2023/04/08 04:55:31;;;;;;;1.77;1.73;;;;;;;7.25;90.89;95552.16;4386414;32;20200;-52
2023/04/08 04:57:56;;;;;;;2.90;2.80;;;;;;;7.37;90.29;95557.13;4385349;32;20268;-50
2023/04/08 05:00:21;;;;;;;3.13;2.93;;;;;;;7.47;89.74;95568.47;4384341;32;20203;-52
2023/04/08 05:02:47;;;;;;;2.70;2.57;;;;;;;7.37;90.02;95568.47;4366488;32;20229;-48
2023/04/08 05:05:12;;;;;;;4.03;2.80;;;;;;;7.35;90.17;95557.41;4363368;32;20198;-50
2023/04/08 05:07:38;;;;;;;3.47;3.17;;;;;;;7.39;90.40;95562.94;4387059;32;20189;-49
2023/04/08 05:10:04;;;;;;;2.40;2.30;;;;;;;7.35;90.19;95560.03;4384054;32;20307;-50
2023/04/08 05:12:30;;;;;;;1.90;1.90;;;;;;;7.28;90.65;95564.78;4371146;32;20188;-51
2023/04/08 05:14:58;;;;;;;3.70;2.20;;;;;;;7.25;91.08;95567.97;4382250;32;20296;-54
2023/04/08 05:17:23;;;;;;;3.07;2.83;;;;;;;7.42;90.62;95568.47;4374121;32;20181;-54
2023/04/08 05:19:49;;;;;;;2.60;2.40;;;;;;;7.40;90.73;95560.03;4391410;32;20275;-51
2023/04/08 05:22:14;;;;;;;3.20;2.90;;;;;;;7.33;91.16;95570.06;4376068;32;20265;-53
2023/04/08 05:24:40;;;;;;;5.17;3.03;;;;;;;7.37;91.12;95563.22;4385543;32;20192;-52
2023/04/08 05:27:05;;;;;;;2.87;2.53;;;;;;;7.35;91.21;95554.75;4385860;32;20188;-54
2023/04/08 05:29:30;;;;;;;2.73;2.53;;;;;;;7.45;91.04;95561.88;4365380;32;20193;-50
2023/04/08 05:31:56;;;;;;;2.60;2.40;;;;;;;7.49;90.48;95565.53;4389625;32;20259;-52
2023/04/08 05:34:21;;;;;;;3.37;3.20;;;;;;;7.61;90.44;95565.28;4388664;32;20243;-53
2023/04/08 05:36:50;;;;;;;3.30;3.10;;;;;;;7.54;90.57;95570.81;4384685;32;20263;-48
2023/04/08 05:39:17;;;;;;;2.77;2.57;;;;;;;7.46;90.60;95572.19;4372452;32;20199;-52
2023/04/08 05:41:43;;;;;;;3.40;3.27;;;;;;;7.53;90.92;95564.75;4382034;32;20281;-52
2023/04/08 05:44:08;;;;;;;2.53;2.33;;;;;;;7.63;90.43;95568.44;4373668;32;20275;-50
2023/04/08 05:46:34;;;;;;;2.00;1.90;;;;;;;7.54;90.69;95576.91;4369921;32;20438;-49
2023/04/08 05:48:59;;;;;;;3.23;3.13;;;;;;;7.55;90.82;95569.75;4385970;32;20227;-54
2023/04/08 05:51:25;;;;;;;3.60;2.87;;;;;;;7.51;91.34;95569.50;4383349;32;20251;-59
2023/04/08 05:53:50;;;;;;;6.00;3.33;;;;;;;7.49;91.17;95568.97;4381538;32;20208;-51
2023/04/08 05:56:15;;;;;;;2.10;2.00;;;;;;;7.45;91.31;95567.94;4379334;32;20226;-50
2023/04/08 05:58:41;;;;;;;3.53;3.37;;;;;;;7.53;91.15;95570.03;4375521;32;20196;-51
2023/04/08 06:01:06;;;;;;;3.60;3.40;;;;;;;7.66;91.05;95578.47;4356198;32;20348;-53
2023/04/08 06:03:31;;;;;;;3.47;3.27;;;;;;;7.46;91.41;95569.53;4379980;32;20193;-53
2023/04/08 06:05:57;;;;;;;3.10;2.90;;;;;;;7.57;91.55;95576.34;4377083;32;20184;-53
2023/04/08 06:08:23;;;;;;;2.83;2.63;;;;;;;7.54;91.61;95571.63;4361381;32;20208;-51
2023/04/08 06:10:49;;;;;;;4.07;3.83;;;;;;;7.64;91.14;95575.31;4378281;32;20177;-53
2023/04/08 06:13:15;;;;;;;5.13;4.50;;;;;;;7.82;90.53;95583.44;4383176;32;20360;-55
2023/04/08 06:15:40;;;;;;;2.60;2.40;;;;;;;7.69;90.88;95578.69;4381487;32;20332;-51
2023/04/08 06:18:05;;;;;;;2.23;2.13;;;;;;;7.80;90.62;95580.25;4384583;32;20212;-51
2023/04/08 06:20:31;;;;;;;3.40;3.20;;;;;;;7.68;91.25;95582.44;4374091;32;20206;-54
2023/04/08 06:22:56;;;;;;;2.97;2.87;;;;;;;7.65;91.29;95593.50;4384552;32;20236;-52
2023/04/08 06:25:22;;;;;;;2.93;2.70;;;;;;;7.80;90.92;95592.69;4374103;32;20177;-51
2023/04/08 06:27:47;;;;;;;2.80;2.70;;;;;;;7.83;91.22;95586.88;4380717;32;20199;-51
2023/04/08 06:30:12;;;;;;;3.17;2.77;;;;;;;7.97;90.10;95587.06;4382869;32;20209;-51
2023/04/08 06:32:38;;;;;;;3.00;2.73;;;;;;;7.92;90.08;95588.66;4379535;32;20244;-50
2023/04/08 06:35:03;;;;;;;2.67;2.57;;;;;;;7.91;89.99;95581.81;4381138;32;20194;-52
2023/04/08 06:37:29;;;;;;;2.73;2.63;;;;;;;7.86;90.36;95596.91;4385935;32;20214;-49
2023/04/08 06:39:54;;;;;;;3.50;3.30;;;;;;;7.80;90.83;95590.03;4384978;32;20251;-50
2023/04/08 06:42:19;;;;;;;3.30;3.20;;;;;;;7.94;90.04;95601.59;4389592;32;20184;-52
2023/04/08 06:44:45;;;;;;;3.90;3.70;;;;;;;8.01;89.82;95596.03;4383793;32;20271;-53
2023/04/08 06:47:10;;;;;;;3.17;2.97;;;;;;;8.08;88.95;95600.00;4382814;32;20229;-51
2023/04/08 06:49:36;;;;;;;3.83;3.53;;;;;;;8.13;88.04;95596.50;4382366;32;20194;-51
2023/04/08 06:52:01;;;;;;;3.47;3.23;;;;;;;7.99;88.64;95604.22;4376764;32;20193;-52
2023/04/08 06:54:26;;;;;;;4.13;3.27;;;;;;;7.92;88.40;95609.78;4388468;32;20227;-52
2023/04/08 06:56:52;;;;;;;4.07;3.67;;;;;;;7.99;88.77;95609.53;4376082;32;20193;-53
2023/04/08 06:59:17;;;;;;;2.93;2.80;;;;;;;8.03;88.83;95610.56;4364883;32;20193;-50
2023/04/08 07:01:42;;;;;;;3.20;3.00;;;;;;;8.02;88.25;95608.97;4377740;32;20188;-51
2023/04/08 07:04:08;;;;;;;2.80;2.70;;;;;;;7.96;87.92;95617.97;4382801;32;20188;-51
2023/04/08 07:06:33;;;;;;;2.27;2.17;;;;;;;7.80;88.70;95619.09;4367276;32;20233;-52
2023/04/08 07:08:58;;;;;;;2.93;2.73;;;;;;;7.87;88.65;95616.97;4381728;32;20184;-53
2023/04/08 07:11:25;;;;;;;3.93;3.73;;;;;;;7.83;88.82;95618.56;4381179;32;20180;-52
2023/04/08 07:13:51;;;;;;;2.70;2.50;;;;;;;7.83;89.03;95621.19;4386623;32;20203;-50
2023/04/08 07:16:16;;;;;;;4.43;3.20;;;;;;;7.87;88.16;95611.69;4365388;32;20322;-53
2023/04/08 07:18:42;;;;;;;3.00;2.77;;;;;;;7.98;87.74;95618.50;4383278;32;20304;-54
2023/04/08 07:21:08;;;;;;;2.77;2.67;;;;;;;7.98;87.95;95623.78;4388462;32;20256;-53
2023/04/08 07:23:33;;;;;;;3.37;3.17;;;;;;;7.99;87.69;95619.28;4364788;32;20288;-51
2023/04/08 07:26:04;;;;;;;3.03;2.93;;;;;;;8.02;87.60;95624.84;4377688;32;20211;-51
2023/04/08 07:28:30;;;;;;;3.40;3.10;;;;;;;7.97;87.52;95632.78;4387850;32;20248;-52
2023/04/08 07:30:56;;;;;;;2.87;2.67;;;;;;;7.86;87.06;95625.94;4390508;32;20291;-52
2023/04/08 07:33:22;;;;;;;3.67;3.47;;;;;;;7.69;87.93;95626.22;4382082;32;20204;-52
2023/04/08 07:35:47;;;;;;;3.17;3.07;;;;;;;7.75;88.96;95638.38;4371618;32;20203;-52
2023/04/08 07:38:13;;;;;;;2.57;2.47;;;;;;;7.62;87.16;95646.06;4383531;32;20277;-53
2023/04/08 07:40:38;;;;;;;3.67;3.47;;;;;;;7.63;85.73;95632.59;4386097;32;20196;-52
2023/04/08 07:43:04;;;;;;;4.07;3.77;;;;;;;7.70;86.05;95642.84;4387192;32;20220;-51
2023/04/08 07:45:29;;;;;;;3.10;2.90;;;;;;;7.67;84.21;95648.69;4380359;32;20195;-50
2023/04/08 07:47:54;;;;;;;3.23;3.03;;;;;;;7.74;84.75;95646.56;4387766;32;20184;-48
2023/04/08 07:50:20;;;;;;;3.73;3.53;;;;;;;7.71;80.36;95652.38;4367102;32;20188;-48
2023/04/08 07:52:45;;;;;;;2.87;2.77;;;;;;;7.62;79.02;95651.34;4379213;32;20193;-53
2023/04/08 07:55:11;;;;;;;2.93;2.73;;;;;;;7.58;77.72;95646.59;4383441;32;20189;-51
2023/04/08 07:57:36;;;;;;;2.63;2.53;;;;;;;7.58;76.33;95651.88;4380249;32;20262;-50
2023/04/08 08:00:02;;;;;;;2.37;2.20;;;;;;;7.27;74.38;95666.13;4370240;32;20187;-51
2023/04/08 08:02:27;;;;;;;1.77;1.73;;;;;;;7.36;73.23;95656.63;4391090;32;20246;-49
2023/04/08 08:04:53;;;;;;;2.30;2.20;;;;;;;7.39;74.38;95653.47;4386198;32;20281;-50
2023/04/08 08:07:18;;;;;;;1.70;1.60;;;;;;;7.37;74.15;95658.22;4389870;32;20180;-49
2023/04/08 08:09:43;;;;;;;2.40;2.30;;;;;;;7.52;74.03;95642.34;4380850;32;20224;-51
2023/04/08 08:12:09;;;;;;;3.17;2.77;;;;;;;7.52;73.26;95654.75;4386389;32;20269;-51
2023/04/08 08:14:34;;;;;;;3.57;3.13;;;;;;;7.77;72.19;95654.75;4387574;32;20266;-50
2023/04/08 08:17:00;;;;;;;1.80;1.70;;;;;;;7.73;73.03;95658.16;4381331;32;20207;-49
2023/04/08 08:19:25;;;;;;;2.93;2.73;;;;;;;7.74;72.33;95665.81;4377270;32;20189;-52
2023/04/08 08:21:51;;;;;;;2.47;2.37;;;;;;;7.77;72.66;95661.88;4372303;32;20223;-49
2023/04/08 08:24:16;;;;;;;3.57;3.37;;;;;;;7.65;72.41;95662.16;4382898;32;20222;-52
2023/04/08 08:26:43;;;;;;;2.60;2.43;;;;;;;7.58;72.98;95662.41;4390418;32;20257;-48
2023/04/08 08:29:09;;;;;;;2.10;1.93;;;;;;;7.48;73.88;95667.69;4388381;32;20250;-48
2023/04/08 08:31:34;;;;;;;2.43;2.30;;;;;;;7.30;74.86;95675.34;4383176;32;20326;-48
2023/04/08 08:33:59;;;;;;;2.63;2.53;;;;;;;7.38;77.00;95666.91;4377356;32;20204;-51
2023/04/08 08:36:28;;;;;;;2.17;1.73;;;;;;;7.31;76.05;95674.28;4390117;32;20189;-56
2023/04/08 08:38:53;;;;;;;2.73;2.63;;;;;;;7.32;76.47;95668.75;4378969;32;20252;-51
2023/04/08 08:41:20;;;;;;;2.33;2.17;;;;;;;7.26;77.56;95674.31;4367243;32;20267;-50
2023/04/08 08:43:45;;;;;;;2.43;2.33;;;;;;;7.18;78.39;95680.91;4373535;32;20336;-49
2023/04/08 08:46:11;;;;;;;4.40;3.33;;;;;;;7.21;78.32;95677.72;4378512;32;20292;-51
2023/04/08 08:48:37;;;;;;;2.00;1.93;;;;;;;7.25;77.61;95676.16;4384583;32;20180;-52
2023/04/08 08:51:08;;;;;;;2.70;2.60;;;;;;;7.30;76.97;95681.41;4385195;32;20248;-48
2023/04/08 08:53:33;;;;;;;2.83;2.63;;;;;;;7.23;78.86;95676.41;4381417;32;20272;-51
2023/04/08 08:55:59;;;;;;;2.83;2.67;;;;;;;7.24;77.02;95683.28;4369703;32;20298;-51
2023/04/08 08:58:27;;;;;;;2.93;2.83;;;;;;;7.23;77.34;95680.91;4386818;32;20189;-53
2023/04/08 09:00:53;;;;;;;5.03;2.87;;;;;;;7.26;77.75;95688.31;4386110;32;20204;-50
2023/04/08 09:03:20;;;;;;;6.50;3.33;;;;;;;7.22;77.63;95687.25;4385740;32;20303;-50
2023/04/08 09:05:50;;;;;;;2.80;2.70;;;;;;;7.27;78.36;95694.37;4372947;32;20244;-51
2023/04/08 09:08:25;;;;;;;2.93;2.80;;;;;;;7.15;77.96;95694.59;4383087;32;20386;-51
2023/04/08 09:10:50;;;;;;;3.77;3.47;;;;;;;7.13;79.33;95688.78;4382314;32;20318;-51
2023/04/08 09:13:16;;;;;;;6.67;2.10;;;;;;;7.15;78.78;95691.97;4386053;32;20335;-52
2023/04/08 09:16:04;;;;;;;2.93;2.73;;;;;;;7.06;81.23;95696.97;4381421;32;20209;-50
2023/04/08 09:18:31;;;;;;;2.47;2.20;;;;;;;7.08;81.83;95704.59;4367719;32;20189;-53
2023/04/08 09:20:59;;;;;;;2.60;2.50;;;;;;;6.92;80.77;95706.44;4384634;32;20315;-51
2023/04/08 09:23:36;;;;;;;2.67;2.57;;;;;;;6.77;80.98;95711.66;4376946;32;20280;-50
2023/04/08 09:26:16;;;;;;;2.00;1.90;;;;;;;6.69;83.07;95704.25;4364598;32;20283;-53
2023/04/08 09:28:43;;;;;;;2.27;2.17;;;;;;;6.75;81.94;95711.13;4386895;32;20299;-52
2023/04/08 09:31:19;;;;;;;5.73;2.37;;;;;;;6.72;80.24;95712.44;4382948;32;20318;-54
2023/04/08 09:33:46;;;;;;;2.33;2.23;;;;;;;6.51;83.48;95702.87;4385540;32;20293;-52
2023/04/08 09:36:11;;;;;;;1.57;1.57;;;;;;;6.64;83.43;95705.03;4382693;32;20290;-52
2023/04/08 09:38:37;;;;;;;2.40;2.30;;;;;;;6.61;82.53;95705.56;4376922;32;20356;-55
2023/04/08 09:41:06;;;;;;;2.63;2.43;;;;;;;6.77;82.91;95703.75;4382642;32;20192;-50
2023/04/08 09:43:40;;;;;;;2.20;2.10;;;;;;;6.63;83.40;95708.72;4373067;32;20192;-51
2023/04/08 09:46:10;;;;;;;2.43;2.33;;;;;;;6.70;81.89;95704.00;4369270;32;20334;-52
2023/04/08 09:48:40;;;;;;;1.93;1.87;;;;;;;6.70;82.72;95708.47;4375106;32;20402;-49
2023/04/08 09:51:07;;;;;;;2.27;2.17;;;;;;;6.86;80.61;95707.47;4367540;32;20352;-54
2023/04/08 09:53:44;;;;;;;2.27;2.07;;;;;;;6.73;80.29;95708.75;4377697;32;20284;-53
2023/04/08 09:56:12;;;;;;;3.30;3.20;;;;;;;6.80;79.70;95705.88;4366433;32;20304;-55
2023/04/08 09:58:45;;;;;;;2.33;2.23;;;;;;;6.74;79.27;95710.34;4379811;32;20292;-51
2023/04/08 10:01:13;;;;;;;1.60;1.60;;;;;;;6.85;80.92;95706.69;4377045;32;20280;-53
2023/04/08 10:03:47;;;;;;;2.57;2.37;;;;;;;6.81;80.34;95703.00;4382419;32;20283;-49
2023/04/08 10:06:14;;;;;;;2.93;2.73;;;;;;;7.00;79.93;95697.22;4387564;32;20318;-50
2023/04/08 10:08:40;;;;;;;3.10;2.90;;;;;;;6.99;78.85;95700.91;4387998;32;20284;-50
2023/04/08 10:11:06;;;;;;;2.77;2.67;;;;;;;7.04;79.18;95704.38;4373978;32;20339;-52
2023/04/08 10:13:32;;;;;;;3.57;3.27;;;;;;;7.25;78.10;95699.91;4366960;32;20279;-51
2023/04/08 10:16:27;;;;;;;3.13;2.87;;;;;;;7.29;77.29;95700.94;4370176;32;20189;-51
2023/04/08 10:18:56;;;;;;;2.50;2.40;;;;;;;7.29;76.95;95708.84;4376061;32;20304;-50
2023/04/08 10:21:42;;;;;;;2.40;2.30;;;;;;;7.25;78.30;95699.91;4368897;32;20295;-49
2023/04/08 10:24:10;;;;;;;3.37;3.07;;;;;;;7.41;76.92;95703.34;4382629;32;20276;-54
2023/04/08 10:26:38;;;;;;;3.63;3.33;;;;;;;7.75;77.08;95708.88;4386395;32;20346;-48
2023/04/08 10:29:20;;;;;;;2.40;2.30;;;;;;;7.68;77.13;95708.38;4362242;32;20289;-50
2023/04/08 10:31:51;;;;;;;3.37;3.17;;;;;;;7.64;77.47;95699.38;4373839;32;20389;-53
2023/04/08 10:34:25;;;;;;;2.93;2.80;;;;;;;7.80;76.56;95695.66;4384451;32;20277;-52
2023/04/08 10:36:51;;;;;;;3.10;3.00;;;;;;;7.85;76.61;95703.59;4382040;32;20290;-49
2023/04/08 10:39:17;;;;;;;2.93;2.83;;;;;;;7.75;76.14;95698.31;4381506;32;20291;-52
2023/04/08 10:41:43;;;;;;;4.00;3.60;;;;;;;7.83;77.50;95703.06;4381791;32;20367;-52
2023/04/08 10:44:15;;;;;;;2.93;2.83;;;;;;;7.70;77.37;95698.31;4378629;32;20192;-52
2023/04/08 10:46:41;;;;;;;4.23;3.93;;;;;;;7.87;77.73;95696.19;4384204;32;20280;-54
2023/04/08 10:49:07;;;;;;;3.00;2.80;;;;;;;7.98;76.60;95687.19;4386205;32;20343;-52
2023/04/08 10:51:34;;;;;;;2.70;2.60;;;;;;;8.04;77.06;95688.78;4382345;32;20183;-51
2023/04/08 10:54:10;;;;;;;3.93;3.63;;;;;;;8.04;75.90;95694.06;4379958;32;20273;-51
2023/04/08 10:56:44;;;;;;;5.03;3.27;;;;;;;7.94;75.47;95688.78;4381484;32;20311;-53
2023/04/08 10:59:09;;;;;;;3.70;3.40;;;;;;;7.74;77.09;95699.38;4384237;32;20299;-49
2023/04/08 11:01:39;;;;;;;4.80;3.27;;;;;;;7.83;77.53;95695.94;4390586;32;20331;-49
2023/04/08 11:04:15;;;;;;;3.30;3.10;;;;;;;7.89;76.95;95700.16;4365793;32;20192;-51
2023/04/08 11:06:42;;;;;;;3.00;2.70;;;;;;;7.96;77.02;95694.59;4358864;32;20393;-51
2023/04/08 11:09:08;;;;;;;3.73;3.53;;;;;;;7.89;77.46;95696.72;4390659;32;20306;-50
2023/04/08 11:11:34;;;;;;;2.67;2.57;;;;;;;7.73;77.52;95693.28;4389501;32;20276;-52
2023/04/08 11:14:00;;;;;;;3.57;3.37;;;;;;;7.68;79.03;95695.97;4378426;32;20187;-50
2023/04/08 11:16:27;;;;;;;3.33;3.13;;;;;;;7.62;79.04;95704.13;4386927;32;20285;-48
2023/04/08 11:18:54;;;;;;;4.10;3.80;;;;;;;7.46;79.36;95695.44;4384653;32;20272;-51
2023/04/08 11:21:22;;;;;;;3.63;3.43;;;;;;;7.56;79.05;95695.41;4370276;32;20330;-49
2023/04/08 11:23:51;;;;;;;3.20;3.07;;;;;;;7.63;78.25;95705.72;4368350;32;20280;-47
2023/04/08 11:26:17;;;;;;;2.63;2.43;;;;;;;7.61;79.41;95695.44;4369165;32;20295;-49
2023/04/08 11:28:44;;;;;;;3.33;3.13;;;;;;;7.52;79.89;95700.44;4384738;32;20333;-49
2023/04/08 11:31:10;;;;;;;4.33;4.03;;;;;;;7.46;80.34;95696.22;4375474;32;20285;-53
2023/04/08 11:33:35;;;;;;;3.47;3.27;;;;;;;7.63;79.97;95706.50;4384721;32;20358;-52
2023/04/08 11:36:05;;;;;;;3.37;3.20;;;;;;;7.61;80.93;95697.28;4390649;32;20214;-50
2023/04/08 11:38:30;;;;;;;3.23;3.00;;;;;;;7.71;80.45;95703.31;4375085;32;20208;-47
2023/04/08 11:41:00;;;;;;;2.80;2.70;;;;;;;7.58;80.70;95707.31;4395806;32;20315;-58